Terminal Aerodrome Forecast
Issued by NWS North Platte, NE

Home | Current Version | Previous Version | Text Only | Print | Product List | Glossary On
Versions: 1 2 3 4 5 6 7 8 9 10 11 12
017
FTUS43 KLBF 201120
TAFVTN
TAF
KVTN 201120Z 2012/2112 28010KT P6SM BKN150
     FM201400 31013G20KT P6SM BKN080
     FM202300 30009KT P6SM SKC
     FM210200 23006KT P6SM SKC
     FM210900 23008KT P6SM FEW250 WS020/25040KT=

USA.gov is the U.S. government's official web portal to all federal, state and local government web resources and services.